createdAt,value
2022-08-01T00:02:00.779Z,1.73
2022-08-01T00:04:50.771Z,2.10
2022-08-01T00:07:41.250Z,1.83
2022-08-01T00:10:31.191Z,1.55
2022-08-01T00:13:21.271Z,1.75
2022-08-01T00:16:11.307Z,1.70
2022-08-01T00:19:01.451Z,1.73
2022-08-01T00:21:52.313Z,1.77
2022-08-01T00:24:42.737Z,1.85
2022-08-01T00:27:32.982Z,2.08
2022-08-01T00:30:28.052Z,1.90
2022-08-01T00:33:18.925Z,2.08
2022-08-01T00:36:09.459Z,1.92
2022-08-01T00:38:59.536Z,2.17
2022-08-01T00:41:49.768Z,2.17
2022-08-01T00:44:50.671Z,1.90
2022-08-01T00:47:41.306Z,2.00
2022-08-01T00:50:31.918Z,2.08
2022-08-01T00:53:22.137Z,2.00
2022-08-01T00:56:12.703Z,1.95
2022-08-01T00:59:04.351Z,2.03
2022-08-01T01:01:54.471Z,1.90
2022-08-01T01:04:45.224Z,2.08
2022-08-01T01:08:03.118Z,1.90
2022-08-01T01:10:59.064Z,2.10
2022-08-01T01:13:58.505Z,1.98
2022-08-01T01:16:50.311Z,1.88
2022-08-01T01:19:48.214Z,2.10
2022-08-01T01:22:47.625Z,2.00
2022-08-01T01:25:59.266Z,2.10
2022-08-01T01:29:06.516Z,2.25
2022-08-01T01:32:03.551Z,1.95
2022-08-01T01:34:55.823Z,2.10
2022-08-01T01:37:48.740Z,2.00
2022-08-01T01:40:40.175Z,2.08
2022-08-01T01:43:33.516Z,1.98
2022-08-01T01:46:28.204Z,2.33
2022-08-01T01:52:14.738Z,2.08
2022-08-01T01:55:07.929Z,2.45
2022-08-01T01:57:59.250Z,2.00
2022-08-01T02:00:52.006Z,2.42
2022-08-01T02:03:44.320Z,2.13
2022-08-01T02:06:35.882Z,2.15
2022-08-01T02:09:29.033Z,2.17
2022-08-01T02:12:22.554Z,2.58
2022-08-01T02:15:14.727Z,2.20
2022-08-01T02:18:07.295Z,2.22
2022-08-01T02:20:59.996Z,2.30
2022-08-01T02:23:52.714Z,2.22
2022-08-01T02:26:48.446Z,2.53
2022-08-01T02:30:06.440Z,2.65
2022-08-01T02:33:05.929Z,2.45
2022-08-01T02:36:31.774Z,2.20
2022-08-01T02:39:14.519Z,2.42
2022-08-01T02:42:08.885Z,2.22
2022-08-01T02:44:59.609Z,2.25
2022-08-01T02:47:52.783Z,2.55
2022-08-01T02:50:49.070Z,2.40
2022-08-01T02:53:44.632Z,2.30
2022-08-01T02:56:36.853Z,2.45
2022-08-01T02:59:28.743Z,2.70
2022-08-01T03:02:22.319Z,2.22
2022-08-01T03:05:14.781Z,2.25
2022-08-01T03:08:11.977Z,2.67
2022-08-01T03:11:07.036Z,2.20
2022-08-01T03:13:59.913Z,2.55
2022-08-01T03:16:52.512Z,2.50
2022-08-01T03:19:46.497Z,2.60
2022-08-01T03:22:39.074Z,2.30
2022-08-01T03:25:31.581Z,2.63
2022-08-01T03:28:23.179Z,2.50
2022-08-01T03:31:19.926Z,2.50
2022-08-01T03:34:10.393Z,2.63
2022-08-01T03:37:07.977Z,2.83
2022-08-01T03:40:09.989Z,2.50
2022-08-01T03:43:05.409Z,2.58
2022-08-01T03:45:59.173Z,2.45
2022-08-01T03:48:53.884Z,3.05
2022-08-01T03:51:49.067Z,2.67
2022-08-01T03:54:44.754Z,2.55
2022-08-01T03:57:37.084Z,2.65
2022-08-01T04:00:28.443Z,2.67
2022-08-01T04:03:19.528Z,2.42
2022-08-01T04:06:11.339Z,2.47
2022-08-01T04:09:01.896Z,2.75
2022-08-01T04:11:51.993Z,2.88
2022-08-01T04:14:41.944Z,2.80
2022-08-01T04:17:32.853Z,2.80
2022-08-01T04:20:23.464Z,3.03
2022-08-01T04:23:15.125Z,2.90
2022-08-01T04:26:06.514Z,3.03
2022-08-01T04:28:57.284Z,2.58
2022-08-01T04:31:49.962Z,3.03
2022-08-01T04:34:42.449Z,2.70
2022-08-01T04:37:34.566Z,2.72
2022-08-01T04:40:27.229Z,3.00
2022-08-01T04:43:17.772Z,2.58
2022-08-01T04:46:09.202Z,2.83
2022-08-01T04:49:01.399Z,2.60
2022-08-01T04:52:01.006Z,2.80
2022-08-01T04:54:51.053Z,2.80
2022-08-01T04:57:45.818Z,2.70
2022-08-01T05:00:36.042Z,2.60
2022-08-01T05:03:26.494Z,2.53
2022-08-01T05:06:16.670Z,2.63
2022-08-01T05:09:08.897Z,2.42
2022-08-01T05:12:00.287Z,2.60
2022-08-01T05:14:50.362Z,2.60
2022-08-01T05:17:40.604Z,2.65
2022-08-01T05:20:31.003Z,2.80
2022-08-01T05:23:31.027Z,2.63
2022-08-01T05:26:32.082Z,2.60
2022-08-01T05:29:23.178Z,2.72
2022-08-01T05:32:13.179Z,2.65
2022-08-01T05:35:03.938Z,2.80
2022-08-01T05:37:54.298Z,2.40
2022-08-01T05:40:44.580Z,1.98
2022-08-01T05:43:34.686Z,2.30
2022-08-01T05:46:26.850Z,2.38
2022-08-01T05:49:18.117Z,2.17
2022-08-01T05:52:08.840Z,2.10
2022-08-01T05:54:59.198Z,2.28
2022-08-01T05:57:49.485Z,2.13
2022-08-01T06:00:40.349Z,2.10
2022-08-01T06:03:32.256Z,2.38
2022-08-01T06:06:25.217Z,2.10
2022-08-01T06:09:15.685Z,2.13
2022-08-01T06:12:06.250Z,1.90
2022-08-01T06:14:56.334Z,2.13
2022-08-01T06:17:46.743Z,2.42
2022-08-01T06:20:37.059Z,2.30
2022-08-01T06:23:31.668Z,2.55
2022-08-01T06:26:22.808Z,2.38
2022-08-01T06:29:14.047Z,1.95
2022-08-01T06:32:04.815Z,1.65
2022-08-01T06:34:56.320Z,1.80
2022-08-01T06:37:47.822Z,1.92
2022-08-01T06:40:39.295Z,1.70
2022-08-01T06:43:29.653Z,1.77
2022-08-01T06:46:20.186Z,1.90
2022-08-01T06:49:10.884Z,1.50
2022-08-01T06:52:01.184Z,1.50
2022-08-01T06:54:51.658Z,1.60
2022-08-01T06:57:50.993Z,1.60
2022-08-01T07:00:43.305Z,1.70
2022-08-01T07:03:52.997Z,1.90
2022-08-01T07:06:44.011Z,1.77
2022-08-01T07:09:34.870Z,1.50
2022-08-01T07:12:25.287Z,1.70
2022-08-01T07:15:16.550Z,1.63
2022-08-01T07:18:06.950Z,1.50
2022-08-01T07:20:56.942Z,1.77
2022-08-01T07:23:47.027Z,1.60
2022-08-01T07:26:37.024Z,1.55
2022-08-01T07:29:27.903Z,1.40
2022-08-01T07:32:18.026Z,1.30
2022-08-01T07:35:09.178Z,1.50
2022-08-01T07:37:59.136Z,1.60
2022-08-01T07:40:49.734Z,1.65
2022-08-01T07:43:40.123Z,1.55
2022-08-01T07:46:31.800Z,1.30
2022-08-01T07:49:22.948Z,1.48
2022-08-01T07:52:13.319Z,1.60
2022-08-01T07:55:03.769Z,1.38
2022-08-01T07:57:53.909Z,1.50
2022-08-01T08:00:44.305Z,1.30
2022-08-01T08:03:34.621Z,1.60
2022-08-01T08:06:24.843Z,1.70
2022-08-01T08:09:16.841Z,1.65
2022-08-01T08:12:07.679Z,1.23
2022-08-01T08:15:02.095Z,1.48
2022-08-01T08:17:55.052Z,1.30
2022-08-01T08:20:46.037Z,1.25
2022-08-01T08:23:55.245Z,1.10
2022-08-01T08:26:45.527Z,1.20
2022-08-01T08:29:36.061Z,1.42
2022-08-01T08:32:26.350Z,1.65
2022-08-01T08:35:23.066Z,1.48
2022-08-01T08:38:29.850Z,1.60
2022-08-01T08:41:21.432Z,1.58
2022-08-01T08:44:12.182Z,1.40
2022-08-01T08:47:06.263Z,1.50
2022-08-01T08:50:00.701Z,1.30
2022-08-01T08:52:53.554Z,1.48
2022-08-01T08:55:56.028Z,1.42
2022-08-01T08:58:46.778Z,1.52
2022-08-01T09:01:36.790Z,1.25
2022-08-01T09:04:27.666Z,1.60
2022-08-01T09:07:18.004Z,1.42
2022-08-01T09:10:10.073Z,1.25
2022-08-01T09:13:13.102Z,1.58
2022-08-01T09:16:05.461Z,1.33
2022-08-01T09:19:07.660Z,1.80
2022-08-01T09:22:09.195Z,1.85
2022-08-01T09:25:08.546Z,1.90
2022-08-01T09:28:07.385Z,1.90
2022-08-01T09:30:58.406Z,2.22
2022-08-01T09:33:54.528Z,2.40
2022-08-01T09:36:57.313Z,2.85
2022-08-01T09:39:55.848Z,2.60
2022-08-01T09:42:49.733Z,2.95
2022-08-01T09:48:33.597Z,2.78
2022-08-01T09:51:57.904Z,3.13
2022-08-01T09:54:58.130Z,2.75
2022-08-01T09:57:59.108Z,2.70
2022-08-01T10:01:01.091Z,2.42
2022-08-01T10:04:11.096Z,2.33
2022-08-01T10:07:08.799Z,2.20
2022-08-01T10:10:12.459Z,2.50
2022-08-01T10:13:05.181Z,2.55
2022-08-01T10:15:55.538Z,2.40
2022-08-01T10:18:49.789Z,2.33
2022-08-01T10:21:56.470Z,2.13
2022-08-01T10:24:50.785Z,2.40
2022-08-01T10:27:46.518Z,3.15
2022-08-01T10:30:38.933Z,2.22
2022-08-01T10:33:51.865Z,2.30
2022-08-01T10:36:43.568Z,2.00
2022-08-01T10:39:34.732Z,1.67
2022-08-01T10:42:25.817Z,2.00
2022-08-01T10:45:16.711Z,1.70
2022-08-01T10:48:15.850Z,1.70
2022-08-01T10:54:13.572Z,1.73
2022-08-01T10:57:04.457Z,1.73
2022-08-01T11:00:00.942Z,1.65
2022-08-01T11:03:04.506Z,1.80
2022-08-01T11:05:55.209Z,1.70
2022-08-01T11:08:53.103Z,1.42
2022-08-01T11:12:02.736Z,1.67
2022-08-01T11:14:59.522Z,1.63
2022-08-01T11:17:49.727Z,1.55
2022-08-01T11:21:58.251Z,2.08
2022-08-01T11:24:09.065Z,1.40
2022-08-01T11:27:20.573Z,1.50
2022-08-01T11:30:14.142Z,1.50
2022-08-01T11:33:11.567Z,1.52
2022-08-01T11:36:11.685Z,1.48
2022-08-01T11:39:01.655Z,1.35
2022-08-01T11:41:53.401Z,1.60
2022-08-01T11:44:51.696Z,1.70
2022-08-01T11:47:49.926Z,1.50
2022-08-01T11:50:40.544Z,1.77
2022-08-01T11:53:31.984Z,1.50
2022-08-01T11:56:25.082Z,1.60
2022-08-01T11:59:19.130Z,1.60
2022-08-01T12:02:30.429Z,1.85
2022-08-01T12:05:24.923Z,1.50
2022-08-01T12:08:28.949Z,1.35
2022-08-01T12:11:19.119Z,1.60
2022-08-01T12:14:09.679Z,2.00
2022-08-01T12:17:00.495Z,1.58
2022-08-01T12:19:50.859Z,1.52
2022-08-01T12:22:42.010Z,1.67
2022-08-01T12:25:33.029Z,1.60
2022-08-01T12:28:23.733Z,1.70
2022-08-01T12:31:13.930Z,1.33
2022-08-01T12:34:27.072Z,1.80
2022-08-01T12:37:17.630Z,1.90
2022-08-01T12:40:16.823Z,1.50
2022-08-01T12:43:09.370Z,1.70
2022-08-01T12:46:06.407Z,1.73
2022-08-01T12:48:56.739Z,1.83
2022-08-01T12:51:57.101Z,1.50
2022-08-01T12:55:21.088Z,1.40
2022-08-01T12:58:16.185Z,1.60
2022-08-01T13:01:12.120Z,1.55
2022-08-01T13:04:05.370Z,1.60
2022-08-01T13:06:56.275Z,1.60
2022-08-01T13:09:52.976Z,1.30
2022-08-01T13:12:53.928Z,1.50
2022-08-01T13:15:45.527Z,1.50
2022-08-01T13:18:37.721Z,1.52
2022-08-01T13:21:30.115Z,1.50
2022-08-01T13:24:40.127Z,1.38
2022-08-01T13:27:30.982Z,1.33
2022-08-01T13:30:22.936Z,1.20
2022-08-01T13:33:13.534Z,1.45
2022-08-01T13:36:03.777Z,1.27
2022-08-01T13:39:12.557Z,1.17
2022-08-01T13:42:03.751Z,1.27
2022-08-01T13:44:54.634Z,1.30
2022-08-01T13:48:11.947Z,1.30
2022-08-01T13:51:20.099Z,1.50
2022-08-01T13:54:07.195Z,1.50
2022-08-01T13:56:57.564Z,1.20
2022-08-01T13:59:47.814Z,1.15
2022-08-01T14:02:38.427Z,1.55
2022-08-01T14:05:28.687Z,1.70
2022-08-01T14:08:20.193Z,1.40
2022-08-01T14:11:10.768Z,1.40
2022-08-01T14:14:00.859Z,1.70
2022-08-01T14:16:51.252Z,1.60
2022-08-01T14:19:46.155Z,1.40
2022-08-01T14:22:36.957Z,1.65
2022-08-01T14:26:00.498Z,1.40
2022-08-01T14:28:38.046Z,1.35
2022-08-01T14:31:34.261Z,1.50
2022-08-01T14:34:25.117Z,1.50
2022-08-01T14:37:15.093Z,1.30
2022-08-01T14:40:09.844Z,1.60
2022-08-01T14:43:01.982Z,1.48
2022-08-01T14:45:53.167Z,1.23
2022-08-01T14:48:43.502Z,1.52
2022-08-01T14:51:35.316Z,1.30
2022-08-01T14:54:26.740Z,1.60
2022-08-01T14:57:20.146Z,1.30
2022-08-01T15:00:14.420Z,1.30
2022-08-01T15:03:04.558Z,1.02
2022-08-01T15:05:54.879Z,1.08
2022-08-01T15:08:45.197Z,1.38
2022-08-01T15:11:35.722Z,1.40
2022-08-01T15:14:44.391Z,1.20
2022-08-01T15:17:34.595Z,1.20
2022-08-01T15:20:25.546Z,1.13
2022-08-01T15:23:15.989Z,1.42
2022-08-01T15:26:10.234Z,1.20
2022-08-01T15:31:51.659Z,1.00
2022-08-01T15:34:44.406Z,1.10
2022-08-01T15:37:38.402Z,0.88
2022-08-01T15:40:35.228Z,1.00
2022-08-01T15:43:25.627Z,1.30
2022-08-01T15:46:18.200Z,1.00
2022-08-01T15:49:08.805Z,1.00
2022-08-01T15:51:59.217Z,0.90
2022-08-01T15:54:49.506Z,1.08
2022-08-01T15:57:39.596Z,1.00
2022-08-01T16:00:36.083Z,1.10
2022-08-01T16:03:30.007Z,1.10
2022-08-01T16:06:20.036Z,1.23
2022-08-01T16:09:18.420Z,0.80
2022-08-01T16:12:10.141Z,1.00
2022-08-01T16:15:00.519Z,0.90
2022-08-01T16:17:50.980Z,1.33
2022-08-01T16:20:45.378Z,1.02
2022-08-01T16:23:36.436Z,1.05
2022-08-01T16:26:27.789Z,0.90
2022-08-01T16:29:18.702Z,0.90
2022-08-01T16:32:27.266Z,0.80
2022-08-01T16:35:18.117Z,1.33
2022-08-01T16:38:08.391Z,1.00
2022-08-01T16:40:58.321Z,1.00
2022-08-01T16:43:53.422Z,0.95
2022-08-01T16:46:44.872Z,0.88
2022-08-01T16:49:39.609Z,0.95
2022-08-01T16:52:29.988Z,1.08
2022-08-01T16:55:22.672Z,0.95
2022-08-01T16:58:14.677Z,0.80
2022-08-01T17:02:00.105Z,0.93
2022-08-01T17:04:15.316Z,0.80
2022-08-01T17:07:05.985Z,1.00
2022-08-01T17:09:56.711Z,0.85
2022-08-01T17:12:46.880Z,1.10
2022-08-01T17:15:37.626Z,1.20
2022-08-01T17:18:28.056Z,1.00
2022-08-01T17:21:18.557Z,1.00
2022-08-01T17:24:09.711Z,1.00
2022-08-01T17:27:00.015Z,0.85
2022-08-01T17:29:50.129Z,0.70
2022-08-01T17:32:42.088Z,0.90
2022-08-01T17:35:32.245Z,0.90
2022-08-01T17:38:22.571Z,0.80
2022-08-01T17:41:13.022Z,0.88
2022-08-01T17:44:03.254Z,0.98
2022-08-01T17:46:53.964Z,0.70
2022-08-01T17:49:54.712Z,1.15
2022-08-01T17:52:46.259Z,0.88
2022-08-01T17:55:56.415Z,0.80
2022-08-01T17:58:50.907Z,0.90
2022-08-01T18:01:45.238Z,0.80
2022-08-01T18:04:35.767Z,0.70
2022-08-01T18:08:00.366Z,0.80
2022-08-01T18:10:47.390Z,0.70
2022-08-01T18:13:40.951Z,0.80
2022-08-01T18:16:31.435Z,1.02
2022-08-01T18:19:21.714Z,0.90
2022-08-01T18:22:25.702Z,1.00
2022-08-01T18:25:27.185Z,0.90
2022-08-01T18:28:30.605Z,0.82
2022-08-01T18:31:24.398Z,0.65
2022-08-01T18:34:14.534Z,0.77
2022-08-01T18:37:04.951Z,0.90
2022-08-01T18:39:57.327Z,0.73
2022-08-01T18:42:48.002Z,0.98
2022-08-01T18:45:42.569Z,0.80
2022-08-01T18:48:33.410Z,0.73
2022-08-01T18:51:24.669Z,0.88
2022-08-01T18:54:15.621Z,0.70
2022-08-01T18:57:07.575Z,0.73
2022-08-01T18:59:58.706Z,0.95
2022-08-01T19:02:48.810Z,0.65
2022-08-01T19:05:39.556Z,0.70
2022-08-01T19:08:29.576Z,1.00
2022-08-01T19:11:19.850Z,0.80
2022-08-01T19:14:10.256Z,0.75
2022-08-01T19:17:01.273Z,0.77
2022-08-01T19:19:55.247Z,0.65
2022-08-01T19:22:45.449Z,0.80
2022-08-01T19:25:55.130Z,0.63
2022-08-01T19:28:51.128Z,0.82
2022-08-01T19:31:48.674Z,0.80
2022-08-01T19:34:57.164Z,1.10
2022-08-01T19:37:49.540Z,0.55
2022-08-01T19:40:42.863Z,0.98
2022-08-01T19:43:41.408Z,0.82
2022-08-01T19:46:34.347Z,0.73
2022-08-01T19:49:24.870Z,0.90
2022-08-01T19:52:17.379Z,0.82
2022-08-01T19:55:09.052Z,0.80
2022-08-01T19:58:25.421Z,0.70
2022-08-01T20:01:14.202Z,0.70
2022-08-01T20:04:06.129Z,0.82
2022-08-01T20:06:56.657Z,0.80
2022-08-01T20:09:49.035Z,0.80
2022-08-01T20:12:44.770Z,0.90
2022-08-01T20:15:34.583Z,1.00
2022-08-01T20:18:25.433Z,0.90
2022-08-01T20:21:17.489Z,0.80
2022-08-01T20:24:11.203Z,0.90
2022-08-01T20:27:02.193Z,0.77
2022-08-01T20:29:53.837Z,0.68
2022-08-01T20:32:44.466Z,0.80
2022-08-01T20:35:53.158Z,0.80
2022-08-01T20:38:45.981Z,0.73
2022-08-01T20:41:39.788Z,0.90
2022-08-01T20:44:31.768Z,0.80
2022-08-01T20:47:26.623Z,0.80
2022-08-01T20:50:54.386Z,0.80
2022-08-01T20:53:49.027Z,1.05
2022-08-01T20:57:03.653Z,0.75
2022-08-01T21:00:05.815Z,0.80
2022-08-01T21:03:08.482Z,0.90
2022-08-01T21:06:11.821Z,0.75
2022-08-01T21:09:04.968Z,0.60
2022-08-01T21:12:03.529Z,0.70
2022-08-01T21:15:03.349Z,0.80
2022-08-01T21:18:07.427Z,0.60
2022-08-01T21:21:03.982Z,0.90
2022-08-01T21:23:53.855Z,1.00
2022-08-01T21:26:44.915Z,0.65
2022-08-01T21:29:36.272Z,0.70
2022-08-01T21:32:29.939Z,0.60
2022-08-01T21:38:15.758Z,0.70
2022-08-01T21:41:08.506Z,0.60
2022-08-01T21:44:01.592Z,1.02
2022-08-01T21:46:52.375Z,1.25
2022-08-01T21:49:42.512Z,1.40
2022-08-01T21:53:04.919Z,1.38
2022-08-01T21:56:14.719Z,1.38
2022-08-01T21:59:14.044Z,1.60
2022-08-01T22:02:17.960Z,1.40
2022-08-01T22:05:10.809Z,1.33
2022-08-01T22:08:04.429Z,1.57
2022-08-01T22:11:03.274Z,1.60
2022-08-01T22:13:55.167Z,1.70
2022-08-01T22:16:45.955Z,1.33
2022-08-01T22:19:45.525Z,1.60
2022-08-01T22:22:51.069Z,1.30
2022-08-01T22:25:45.221Z,1.25
2022-08-01T22:28:36.780Z,1.55
2022-08-01T22:31:26.974Z,1.38
2022-08-01T22:34:18.446Z,1.40
2022-08-01T22:37:13.604Z,1.90
2022-08-01T22:40:08.500Z,1.50
2022-08-01T22:43:01.107Z,1.33
2022-08-01T22:45:54.427Z,1.60
2022-08-01T22:48:49.753Z,1.42
2022-08-01T22:51:43.774Z,1.65
2022-08-01T22:55:09.047Z,1.80
2022-08-01T22:58:03.111Z,1.50
2022-08-01T23:01:04.025Z,1.52
2022-08-01T23:03:57.565Z,1.50
2022-08-01T23:06:51.317Z,1.70
2022-08-01T23:09:54.771Z,1.55
2022-08-01T23:12:46.286Z,1.70
2022-08-01T23:15:36.595Z,1.40
2022-08-01T23:18:29.017Z,1.45
2022-08-01T23:21:19.670Z,1.00
2022-08-01T23:24:10.228Z,1.40
2022-08-01T23:27:20.709Z,1.23
2022-08-01T23:30:11.452Z,1.27
2022-08-01T23:33:02.034Z,1.00
2022-08-01T23:35:52.211Z,1.10
2022-08-01T23:38:42.741Z,1.30
2022-08-01T23:41:34.124Z,1.40
2022-08-01T23:44:43.265Z,1.30
2022-08-01T23:47:33.554Z,1.45
2022-08-01T23:50:24.544Z,1.10
2022-08-01T23:53:19.047Z,1.35
2022-08-01T23:56:10.983Z,1.30
2022-08-01T23:59:04.103Z,1.52
